createdAt,value
2023-03-23T06:02:58.804Z,100177.22
2023-03-23T06:05:36.807Z,100182.56
2023-03-23T06:08:08.487Z,100176.22
2023-03-23T06:10:44.865Z,100191.59
2023-03-23T06:13:15.508Z,100202.47
2023-03-23T06:15:51.842Z,100204.66
2023-03-23T06:18:24.809Z,100203.34
2023-03-23T06:21:01.989Z,100195.34
2023-03-23T06:23:32.335Z,100198.88
2023-03-23T06:26:12.910Z,100203.91
2023-03-23T06:28:42.971Z,100206.06
2023-03-23T06:31:19.902Z,100221.09
2023-03-23T06:33:58.856Z,100212.59
2023-03-23T06:36:29.733Z,100212.25
2023-03-23T06:39:06.984Z,100213.72
2023-03-23T06:41:37.841Z,100226.09
2023-03-23T06:44:15.897Z,100230.59
2023-03-23T06:46:46.760Z,100223.41
2023-03-23T06:49:25.934Z,100227.91
2023-03-23T06:52:03.936Z,100235.44
2023-03-23T06:54:34.150Z,100230.91
2023-03-23T06:57:10.944Z,100231.38
2023-03-23T06:59:41.200Z,100228.38
2023-03-23T07:02:20.140Z,100231.50
2023-03-23T07:04:52.903Z,100231.34
2023-03-23T07:07:29.941Z,100241.19
2023-03-23T07:10:00.270Z,100236.50
2023-03-23T07:12:36.929Z,100227.66
2023-03-23T07:15:09.190Z,100224.66
2023-03-23T07:17:45.928Z,100237.97
2023-03-23T07:20:19.151Z,100234.41
2023-03-23T07:22:56.034Z,100237.56
2023-03-23T07:25:32.970Z,100232.03
2023-03-23T07:28:03.572Z,100246.91
2023-03-23T07:30:40.961Z,100253.09
2023-03-23T07:33:13.266Z,100252.78
2023-03-23T07:35:52.976Z,100266.97
2023-03-23T07:38:23.729Z,100264.31
2023-03-23T07:41:00.981Z,100255.28
2023-03-23T07:43:31.543Z,100257.25
2023-03-23T07:46:07.962Z,100254.16
2023-03-23T07:48:38.963Z,100253.63
2023-03-23T07:51:17.995Z,100257.31
2023-03-23T07:53:48.480Z,100252.81
2023-03-23T07:56:26.966Z,100260.28
2023-03-23T07:59:04.003Z,100256.03
2023-03-23T08:01:34.239Z,100259.63
2023-03-23T08:04:10.996Z,100264.44
2023-03-23T08:06:43.826Z,100267.25
2023-03-23T08:09:21.045Z,100278.13
2023-03-23T08:11:51.719Z,100287.16
2023-03-23T08:14:28.046Z,100278.03
2023-03-23T08:16:59.878Z,100278.03
2023-03-23T08:19:37.111Z,100280.25
2023-03-23T08:22:17.033Z,100271.13
2023-03-23T08:24:47.228Z,100275.00
2023-03-23T08:27:24.082Z,100270.38
2023-03-23T08:30:01.043Z,100281.19
2023-03-23T08:32:31.186Z,100280.72
2023-03-23T08:35:11.004Z,100290.72
2023-03-23T08:37:45.258Z,100290.00
2023-03-23T08:40:27.092Z,100293.50
2023-03-23T08:43:04.024Z,100295.81
2023-03-23T08:45:34.639Z,100290.13
2023-03-23T08:48:11.023Z,100291.97
2023-03-23T08:50:49.082Z,100286.28
2023-03-23T08:53:22.381Z,100287.78
2023-03-23T08:55:59.151Z,100294.47
2023-03-23T08:58:32.468Z,100289.09
2023-03-23T09:01:09.139Z,100291.56
2023-03-23T09:03:48.131Z,100294.16
2023-03-23T09:06:18.516Z,100301.19
2023-03-23T09:08:58.061Z,100297.94
2023-03-23T09:11:35.068Z,100300.84
2023-03-23T09:14:13.114Z,100301.31
2023-03-23T09:16:43.936Z,100299.59
2023-03-23T09:19:21.206Z,100301.25
2023-03-23T09:21:58.077Z,100293.25
2023-03-23T09:24:31.298Z,100288.47
2023-03-23T09:27:09.110Z,100292.56
2023-03-23T09:29:46.086Z,100290.81
2023-03-23T09:32:23.143Z,100300.03
2023-03-23T09:35:03.225Z,100298.97
2023-03-23T09:37:42.139Z,100312.34
2023-03-23T09:40:20.856Z,100317.31
2023-03-23T09:43:16.120Z,100315.06
2023-03-23T09:45:59.814Z,100316.59
2023-03-23T09:49:00.165Z,100312.38
2023-03-23T09:51:44.298Z,100323.66
2023-03-23T09:54:30.241Z,100327.00
2023-03-23T09:57:04.930Z,100338.94
2023-03-23T09:59:49.417Z,100340.84
2023-03-23T10:02:35.997Z,100341.78
2023-03-23T10:05:36.113Z,100346.06
2023-03-23T10:08:21.179Z,100351.19
2023-03-23T10:11:08.161Z,100348.75
2023-03-23T10:14:08.760Z,100342.13
2023-03-23T10:16:51.191Z,100351.47
2023-03-23T10:19:31.939Z,100358.44
2023-03-23T10:22:16.197Z,100353.84
2023-03-23T10:24:53.818Z,100350.13
2023-03-23T10:27:40.276Z,100348.16
2023-03-23T10:30:24.019Z,100350.19
2023-03-23T10:33:06.469Z,100371.09
2023-03-23T10:35:44.364Z,100361.31
2023-03-23T10:38:26.240Z,100362.78
2023-03-23T10:41:06.399Z,100356.03
2023-03-23T10:43:43.298Z,100368.75
2023-03-23T10:46:34.723Z,100359.03
2023-03-23T10:49:19.251Z,100346.41
2023-03-23T10:52:03.603Z,100354.53
2023-03-23T10:54:51.219Z,100359.81
2023-03-23T10:57:29.780Z,100359.34
2023-03-23T11:00:16.281Z,100374.41
2023-03-23T11:03:07.229Z,100364.03
2023-03-23T11:05:42.214Z,100370.47
2023-03-23T11:08:24.854Z,100365.94
2023-03-23T11:10:58.822Z,100361.78
2023-03-23T11:13:42.264Z,100350.53
2023-03-23T11:16:13.567Z,100356.69
2023-03-23T11:18:54.238Z,100363.44
2023-03-23T11:21:27.233Z,100350.44
2023-03-23T11:24:10.385Z,100357.41
2023-03-23T11:26:50.287Z,100343.28
2023-03-23T11:29:36.291Z,100360.16
2023-03-23T11:32:17.281Z,100355.94
2023-03-23T11:34:55.525Z,100355.59
2023-03-23T11:37:40.328Z,100361.25
2023-03-23T11:40:28.296Z,100360.72
2023-03-23T11:43:11.278Z,100365.78
2023-03-23T11:45:49.994Z,100364.28
2023-03-23T11:48:37.318Z,100368.38
2023-03-23T11:51:22.435Z,100368.25
2023-03-23T11:54:04.143Z,100372.00
2023-03-23T11:56:46.293Z,100367.44
2023-03-23T11:59:21.569Z,100365.41
2023-03-23T12:02:14.988Z,100364.97
2023-03-23T12:05:11.658Z,100368.19
2023-03-23T12:08:08.345Z,100371.78
2023-03-23T12:14:00.318Z,100362.47
2023-03-23T12:16:51.375Z,100359.28
2023-03-23T12:19:37.490Z,100360.81
2023-03-23T12:22:41.369Z,100351.78
2023-03-23T12:25:49.397Z,100352.53
2023-03-23T12:28:36.645Z,100351.69
2023-03-23T12:31:24.338Z,100343.03
2023-03-23T12:34:03.047Z,100345.72
2023-03-23T12:36:57.490Z,100333.09
2023-03-23T12:39:57.200Z,100334.56
2023-03-23T12:42:50.357Z,100335.78
2023-03-23T12:45:35.352Z,100334.25
2023-03-23T12:48:11.155Z,100345.59
2023-03-23T12:50:54.660Z,100346.75
2023-03-23T12:53:32.490Z,100340.91
2023-03-23T12:56:23.439Z,100335.56
2023-03-23T12:59:17.865Z,100335.88
2023-03-23T13:01:59.374Z,100340.63
2023-03-23T13:04:37.286Z,100327.31
2023-03-23T13:07:20.457Z,100341.69
2023-03-23T13:10:05.349Z,100344.31
2023-03-23T13:12:40.369Z,100351.94
2023-03-23T13:15:36.512Z,100365.94
2023-03-23T13:18:25.449Z,100365.50
2023-03-23T13:21:06.564Z,100358.34
2023-03-23T13:23:49.486Z,100347.13
2023-03-23T13:26:24.797Z,100343.53
2023-03-23T13:29:11.456Z,100348.16
2023-03-23T13:31:45.829Z,100345.06
2023-03-23T13:34:28.470Z,100351.25
2023-03-23T13:37:04.095Z,100345.63
2023-03-23T13:39:44.449Z,100361.38
2023-03-23T13:42:31.511Z,100358.25
2023-03-23T13:45:31.507Z,100361.56
2023-03-23T13:48:26.278Z,100363.94
2023-03-23T13:51:06.466Z,100362.28
2023-03-23T13:53:55.461Z,100358.94
2023-03-23T13:56:39.895Z,100363.38
2023-03-23T13:59:22.465Z,100362.78
